createdAt,value
2019-03-15T00:04:10.443Z,6.21
2019-03-15T00:09:30.493Z,6.22
2019-03-15T00:14:49.130Z,6.25
2019-03-15T00:20:09.899Z,6.31
2019-03-15T00:25:28.598Z,6.30
2019-03-15T00:30:47.214Z,6.29
2019-03-15T00:36:05.591Z,6.33
2019-03-15T00:41:24.195Z,6.34
2019-03-15T00:46:43.070Z,6.35
2019-03-15T00:52:01.686Z,6.37
2019-03-15T00:57:21.440Z,6.35
2019-03-15T01:02:44.457Z,6.35
2019-03-15T01:08:06.284Z,6.33
2019-03-15T01:13:26.883Z,6.32
2019-03-15T01:18:45.497Z,6.33
2019-03-15T01:24:04.897Z,6.50
2019-03-15T01:29:26.663Z,6.39
2019-03-15T01:34:50.327Z,6.34
2019-03-15T01:40:08.927Z,6.31
2019-03-15T01:45:28.677Z,6.31
2019-03-15T01:50:48.770Z,6.40
2019-03-15T01:56:07.138Z,6.19
2019-03-15T02:01:25.776Z,6.11
2019-03-15T02:06:47.307Z,6.03
2019-03-15T02:12:07.198Z,6.10
2019-03-15T02:17:33.230Z,5.95
2019-03-15T02:22:53.828Z,5.90
2019-03-15T02:28:12.392Z,5.82
2019-03-15T02:33:31.042Z,5.75
2019-03-15T02:38:49.567Z,5.85
2019-03-15T02:44:09.493Z,5.83
2019-03-15T02:49:29.504Z,5.85
2019-03-15T02:54:48.922Z,5.80
2019-03-15T03:00:09.682Z,5.74
2019-03-15T03:05:28.417Z,5.74
2019-03-15T03:10:47.550Z,5.84
2019-03-15T03:16:08.374Z,5.86
2019-03-15T03:21:27.058Z,5.99
2019-03-15T03:26:45.613Z,6.04
2019-03-15T03:32:04.355Z,6.03
2019-03-15T03:42:42.077Z,5.99
2019-03-15T03:53:20.014Z,5.84
2019-03-15T03:58:38.639Z,5.76
2019-03-15T04:03:57.967Z,5.74
2019-03-15T04:09:18.065Z,5.77
2019-03-15T04:14:38.196Z,5.78
2019-03-15T04:19:57.812Z,5.75
2019-03-15T04:25:16.521Z,5.85
2019-03-15T04:30:36.533Z,5.92
2019-03-15T04:35:55.087Z,5.95
2019-03-15T04:41:16.932Z,5.93
2019-03-15T04:46:36.968Z,5.91
2019-03-15T04:51:58.777Z,5.89
2019-03-15T04:57:19.562Z,5.97
2019-03-15T05:02:38.193Z,5.93
2019-03-15T05:07:57.042Z,5.89
2019-03-15T05:13:18.679Z,5.90
2019-03-15T05:18:38.690Z,5.94
2019-03-15T05:24:00.696Z,5.91
2019-03-15T05:29:39.490Z,5.93
2019-03-15T05:34:59.502Z,5.97
2019-03-15T05:40:18.114Z,6.00
2019-03-15T05:45:38.632Z,6.08
2019-03-15T05:50:57.189Z,6.07
2019-03-15T05:56:17.292Z,6.05
2019-03-15T06:01:35.959Z,6.11
2019-03-15T06:06:58.920Z,6.11
2019-03-15T06:12:39.124Z,6.11
2019-03-15T06:17:58.239Z,6.14
2019-03-15T06:23:19.284Z,6.09
2019-03-15T06:28:39.369Z,6.11
2019-03-15T06:34:01.303Z,6.09
2019-03-15T06:39:21.148Z,6.08
2019-03-15T06:44:40.890Z,6.09
2019-03-15T06:49:59.539Z,6.09
2019-03-15T06:55:20.541Z,6.10
2019-03-15T07:00:39.155Z,6.09
2019-03-15T07:06:17.336Z,6.12
2019-03-15T07:11:40.533Z,6.18
2019-03-15T07:17:01.498Z,6.19
2019-03-15T07:22:20.282Z,6.23
2019-03-15T07:27:42.396Z,6.37
2019-03-15T07:33:00.286Z,6.37
2019-03-15T07:38:18.911Z,6.41
2019-03-15T07:43:37.970Z,6.45
2019-03-15T07:48:59.228Z,6.50
2019-03-15T07:54:17.844Z,6.54
2019-03-15T07:59:38.019Z,6.67
2019-03-15T08:04:59.164Z,6.71
2019-03-15T08:10:20.148Z,6.71
2019-03-15T08:15:36.799Z,6.79
2019-03-15T08:20:55.341Z,6.95
2019-03-15T08:26:16.697Z,6.97
2019-03-15T08:31:36.710Z,6.99
2019-03-15T08:36:57.403Z,6.92
2019-03-15T08:42:16.501Z,6.92
2019-03-15T08:52:54.292Z,7.16
2019-03-15T08:58:21.694Z,7.18
2019-03-15T09:03:42.492Z,7.09
2019-03-15T09:09:01.979Z,7.15
2019-03-15T09:14:20.555Z,7.41
2019-03-15T09:19:42.594Z,7.60
2019-03-15T09:25:02.548Z,7.74
2019-03-15T09:30:24.204Z,7.81
2019-03-15T09:35:44.557Z,7.90
2019-03-15T09:41:08.076Z,8.07
2019-03-15T09:46:26.606Z,8.17
2019-03-15T09:51:45.223Z,8.23
2019-03-15T09:57:03.518Z,8.29
2019-03-15T10:02:30.287Z,8.42
2019-03-15T10:07:43.459Z,8.54
2019-03-15T10:13:06.245Z,8.68
2019-03-15T10:18:22.780Z,8.89
2019-03-15T10:23:44.494Z,9.08
2019-03-15T10:29:14.550Z,9.33
2019-03-15T10:34:26.203Z,9.55
2019-03-15T10:39:47.043Z,9.68
2019-03-15T10:45:09.534Z,9.83
2019-03-15T10:50:28.172Z,9.97
2019-03-15T10:55:59.659Z,10.01
2019-03-15T11:01:08.838Z,10.11
2019-03-15T11:06:29.859Z,10.07
2019-03-15T11:11:51.775Z,10.09
2019-03-15T11:17:10.971Z,10.18
2019-03-15T11:22:48.927Z,10.23
2019-03-15T11:28:10.188Z,10.32
2019-03-15T11:33:31.412Z,10.39
2019-03-15T11:38:53.850Z,10.44
2019-03-15T11:44:13.162Z,10.59
2019-03-15T11:49:34.906Z,10.51
2019-03-15T11:54:54.481Z,10.46
2019-03-15T12:00:15.628Z,10.51
2019-03-15T12:05:38.088Z,10.63
2019-03-15T12:10:57.994Z,10.55
2019-03-15T12:16:17.533Z,10.65
2019-03-15T12:21:38.093Z,10.56
2019-03-15T12:38:09.310Z,10.59
2019-03-15T12:43:30.403Z,10.62
2019-03-15T12:48:48.947Z,10.70
2019-03-15T12:54:08.540Z,10.70
2019-03-15T12:59:27.202Z,10.74
2019-03-15T13:04:45.779Z,10.92
2019-03-15T13:10:06.316Z,11.07
2019-03-15T13:15:27.394Z,11.32
2019-03-15T13:20:46.011Z,11.49
2019-03-15T13:26:05.646Z,11.58
2019-03-15T13:31:24.296Z,11.57
2019-03-15T13:36:43.129Z,11.52
2019-03-15T13:42:02.667Z,11.58
2019-03-15T13:47:21.540Z,11.53
2019-03-15T13:52:42.798Z,11.62
2019-03-15T13:58:05.307Z,11.57
2019-03-15T14:03:27.957Z,11.44
2019-03-15T14:08:48.047Z,11.37
2019-03-15T14:14:07.731Z,11.31
2019-03-15T14:19:45.880Z,11.47
2019-03-15T14:25:07.896Z,11.36
2019-03-15T14:30:28.017Z,11.18
2019-03-15T14:35:48.098Z,11.05
2019-03-15T14:41:08.188Z,11.02
2019-03-15T14:46:28.110Z,11.02
2019-03-15T14:51:50.204Z,10.95
2019-03-15T14:57:08.206Z,10.84
2019-03-15T15:02:28.308Z,10.85
2019-03-15T15:07:46.893Z,10.85
2019-03-15T15:13:05.538Z,10.91
2019-03-15T15:18:26.192Z,11.01
2019-03-15T15:23:47.051Z,11.05
2019-03-15T15:29:06.935Z,11.04
2019-03-15T15:34:27.028Z,11.10
2019-03-15T15:39:49.810Z,11.03
2019-03-15T15:45:14.873Z,11.05
2019-03-15T15:50:34.539Z,11.05
2019-03-15T15:55:54.555Z,11.00
2019-03-15T16:01:15.732Z,10.80
2019-03-15T16:06:35.450Z,10.62
2019-03-15T16:11:55.288Z,10.43
2019-03-15T16:17:14.855Z,10.43
2019-03-15T16:22:33.502Z,10.33
2019-03-15T16:27:54.055Z,10.30
2019-03-15T16:33:16.677Z,10.37
2019-03-15T16:38:35.237Z,10.35
2019-03-15T16:43:53.860Z,10.32
2019-03-15T16:49:17.104Z,10.28
2019-03-15T16:54:40.715Z,10.27
2019-03-15T16:59:59.289Z,10.29
2019-03-15T17:05:17.928Z,10.22
2019-03-15T17:10:38.041Z,10.25
2019-03-15T17:16:00.846Z,10.24
2019-03-15T17:21:19.965Z,10.11
2019-03-15T17:26:38.593Z,10.01
2019-03-15T17:31:58.640Z,9.97
2019-03-15T17:37:17.589Z,9.88
2019-03-15T17:42:57.383Z,9.81
2019-03-15T17:48:17.001Z,9.77
2019-03-15T17:53:38.279Z,9.72
2019-03-15T17:59:12.250Z,9.69
2019-03-15T18:04:28.112Z,9.61
2019-03-15T18:09:46.747Z,8.77
2019-03-15T18:15:09.875Z,8.29
2019-03-15T18:20:26.449Z,8.04
2019-03-15T18:25:45.017Z,7.95
2019-03-15T18:31:03.941Z,7.87
2019-03-15T18:36:26.759Z,7.84
2019-03-15T18:41:50.286Z,7.80
2019-03-15T18:47:08.205Z,7.71
2019-03-15T18:52:27.275Z,7.67
2019-03-15T18:57:45.918Z,7.62
2019-03-15T19:03:26.872Z,7.61
2019-03-15T19:08:48.833Z,7.55
2019-03-15T19:14:07.560Z,7.41
2019-03-15T19:19:27.731Z,7.36
2019-03-15T19:25:06.713Z,7.33
2019-03-15T19:30:25.434Z,7.28
2019-03-15T19:35:44.072Z,7.26
2019-03-15T19:41:03.313Z,7.22
2019-03-15T19:46:23.050Z,7.23
2019-03-15T19:51:41.765Z,7.26
2019-03-15T19:57:04.042Z,7.26
2019-03-15T20:02:24.250Z,7.28
2019-03-15T20:08:02.166Z,7.28
2019-03-15T20:13:24.452Z,7.26
2019-03-15T20:18:43.896Z,7.19
2019-03-15T20:24:03.984Z,7.23
2019-03-15T20:29:25.746Z,7.23
2019-03-15T20:34:50.733Z,7.18
2019-03-15T20:40:03.174Z,7.18
2019-03-15T20:45:24.863Z,7.14
2019-03-15T20:50:47.123Z,7.15
2019-03-15T20:56:07.478Z,7.15
2019-03-15T21:01:25.766Z,7.14
2019-03-15T21:06:44.306Z,7.14
2019-03-15T21:12:02.662Z,7.19
2019-03-15T21:17:23.241Z,7.14
2019-03-15T21:22:41.865Z,7.12
2019-03-15T21:28:01.354Z,7.11
2019-03-15T21:33:20.177Z,7.10
2019-03-15T21:38:48.032Z,7.06
2019-03-15T21:43:59.649Z,6.99
2019-03-15T21:49:20.042Z,6.96
2019-03-15T21:54:37.244Z,7.01
2019-03-15T21:59:55.884Z,7.03
2019-03-15T22:05:15.253Z,7.12
2019-03-15T22:10:36.689Z,7.12
2019-03-15T22:15:55.257Z,7.13
2019-03-15T22:21:13.804Z,7.17
2019-03-15T22:26:36.954Z,7.18
2019-03-15T22:31:58.727Z,7.24
2019-03-15T22:37:24.226Z,7.23
2019-03-15T22:42:45.924Z,7.22
2019-03-15T22:48:05.763Z,7.23
2019-03-15T22:53:26.336Z,7.25
2019-03-15T22:58:46.435Z,7.31
2019-03-15T23:04:08.470Z,7.34
2019-03-15T23:09:30.999Z,7.37
2019-03-15T23:14:49.644Z,7.39
2019-03-15T23:20:15.565Z,7.47
2019-03-15T23:25:35.845Z,7.55
2019-03-15T23:30:55.980Z,7.50
2019-03-15T23:36:17.542Z,7.58
2019-03-15T23:41:40.046Z,7.70
2019-03-15T23:47:00.520Z,7.70
2019-03-15T23:52:20.287Z,7.77
2019-03-15T23:57:38.902Z,7.69
